Time;durP1;ratioP1;P1;durP2;ratioP2;P2;SDS_P1;SDS_P2;PMS_P1;PMS_P2;Temp;Humidity;BMP_temperature;BMP_pressure;BME280_temperature;BME280_humidity;BME280_pressure;Samples;Min_cycle;Max_cycle;Signal;HPM_P1;HPM_P2
2023/03/24 00:01:59;;;;;;;;;;;;;;;16.19;75.96;99086.88;5072270;28;20030;-57
2023/03/24 00:04:24;;;;;;;;;;;;;;;16.22;74.67;99081.28;5069114;28;19952;-58
2023/03/24 00:06:51;;;;;;;;;;;;;;;16.34;74.87;99078.56;5072430;28;19916;-58
2023/03/24 00:09:16;;;;;;;;;;;;;;;16.38;74.77;99074.72;5071113;28;19949;-57
2023/03/24 00:11:42;;;;;;;;;;;;;;;16.36;74.34;99060.53;5054271;28;19916;-57
2023/03/24 00:14:10;;;;;;;;;;;;;;;16.37;74.26;99069.47;5052141;28;19969;-58
2023/03/24 00:16:37;;;;;;;;;;;;;;;16.41;74.30;99062.91;5054502;28;20419;-57
2023/03/24 00:19:02;;;;;;;;;;;;;;;16.40;75.16;99058.50;5052008;28;19948;-58
2023/03/24 00:21:28;;;;;;;;;;;;;;;16.37;75.10;99056.91;5052214;28;20400;-57
2023/03/24 00:23:54;;;;;;;;;;;;;;;16.31;76.37;99056.50;5052070;28;19920;-57
2023/03/24 00:26:20;;;;;;;;;;;;;;;16.31;75.80;99051.13;5064867;28;19932;-57
2023/03/24 00:28:46;;;;;;;;;;;;;;;16.28;76.08;99045.94;5071687;28;20447;-58
2023/03/24 00:31:15;;;;;;;;;;;;;;;16.22;76.48;99041.03;5065111;28;19935;-58
2023/03/24 00:33:41;;;;;;;;;;;;;;;16.22;76.14;99036.53;5051897;28;20276;-58
2023/03/24 00:36:10;;;;;;;;;;;;;;;16.25;75.10;99027.38;5051503;28;19952;-57
2023/03/24 00:38:36;;;;;;;;;;;;;;;16.24;75.28;99023.88;5054339;28;19974;-57
2023/03/24 00:41:01;;;;;;;;;;;;;;;16.22;75.03;99019.56;5051667;28;19944;-58
2023/03/24 00:43:30;;;;;;;;;;;;;;;16.19;74.87;99014.41;5051645;28;20095;-58
2023/03/24 00:46:10;;;;;;;;;;;;;;;16.18;74.86;99010.88;4990678;28;1860759;-58
2023/03/24 00:48:37;;;;;;;;;;;;;;;16.19;74.11;99014.41;5052793;28;19932;-58
2023/03/24 00:51:03;;;;;;;;;;;;;;;16.23;73.84;99006.03;5072393;28;19931;-58
2023/03/24 00:53:29;;;;;;;;;;;;;;;16.27;73.38;99001.31;5055235;28;19947;-58
2023/03/24 00:55:55;;;;;;;;;;;;;;;16.32;73.27;99009.88;5059460;28;19969;-57
2023/03/24 00:58:20;;;;;;;;;;;;;;;16.32;72.76;99004.53;5065347;28;19934;-57
2023/03/24 01:00:46;;;;;;;;;;;;;;;16.42;71.88;99005.59;5034698;28;19949;-57
2023/03/24 01:03:12;;;;;;;;;;;;;;;16.42;71.20;99006.44;5052878;28;19934;-58
2023/03/24 01:05:38;;;;;;;;;;;;;;;16.52;70.91;99004.81;5068049;28;19925;-58
2023/03/24 01:08:03;;;;;;;;;;;;;;;16.57;69.48;98996.44;5056846;28;19951;-57
2023/03/24 01:10:30;;;;;;;;;;;;;;;16.62;69.73;98991.59;5056333;28;19970;-58
2023/03/24 01:12:57;;;;;;;;;;;;;;;16.69;68.63;98992.84;5072498;28;20023;-59
2023/03/24 01:15:25;;;;;;;;;;;;;;;16.75;68.71;98993.25;5070727;28;19938;-58
2023/03/24 01:17:52;;;;;;;;;;;;;;;16.73;68.47;98987.16;5053568;28;20003;-59
2023/03/24 01:20:17;;;;;;;;;;;;;;;16.74;68.33;98990.69;5052212;28;19927;-58
2023/03/24 01:22:45;;;;;;;;;;;;;;;16.76;68.17;98988.75;5052309;28;19933;-58
2023/03/24 01:25:16;;;;;;;;;;;;;;;16.77;68.05;98990.47;5060941;28;20299;-58
2023/03/24 01:27:42;;;;;;;;;;;;;;;16.78;67.52;98990.38;5071822;28;19940;-58
2023/03/24 01:30:10;;;;;;;;;;;;;;;16.77;67.25;98991.31;5071916;28;19931;-58
2023/03/24 01:32:36;;;;;;;;;;;;;;;16.80;67.47;98995.63;5054565;28;19970;-58
2023/03/24 01:35:01;;;;;;;;;;;;;;;16.81;68.41;99000.00;5052047;28;19933;-58
2023/03/24 01:37:26;;;;;;;;;;;;;;;16.77;67.92;98996.69;5062712;28;20386;-58
2023/03/24 01:39:52;;;;;;;;;;;;;;;16.77;68.38;98990.47;5071694;28;19981;-58
2023/03/24 01:42:18;;;;;;;;;;;;;;;16.75;68.72;98995.09;5071865;28;20328;-58
2023/03/24 01:44:45;;;;;;;;;;;;;;;16.73;68.83;98995.22;5069967;28;19981;-58
2023/03/24 01:47:10;;;;;;;;;;;;;;;16.73;69.26;98994.34;5051792;28;20323;-59
2023/03/24 01:49:45;;;;;;;;;;;;;;;16.68;69.32;98992.00;5051783;28;19927;-58
2023/03/24 01:52:14;;;;;;;;;;;;;;;16.63;68.72;98987.94;5068880;28;19957;-59
2023/03/24 01:54:44;;;;;;;;;;;;;;;16.64;69.07;98984.28;5071725;28;19936;-58
2023/03/24 01:57:23;;;;;;;;;;;;;;;16.65;69.21;98976.13;5068275;28;19920;-59
2023/03/24 01:59:52;;;;;;;;;;;;;;;16.64;69.57;98978.91;5071541;28;20304;-58
2023/03/24 02:02:20;;;;;;;;;;;;;;;16.60;69.62;98969.38;5064220;28;20312;-59
2023/03/24 02:04:49;;;;;;;;;;;;;;;16.60;69.44;98974.75;5057444;28;20326;-58
2023/03/24 02:07:34;;;;;;;;;;;;;;;16.59;69.74;98965.81;5071142;28;19923;-58
2023/03/24 02:10:02;;;;;;;;;;;;;;;16.59;69.27;98959.63;5071266;28;19928;-58
2023/03/24 02:12:28;;;;;;;;;;;;;;;16.61;69.57;98963.03;5056322;28;19987;-59
2023/03/24 02:14:53;;;;;;;;;;;;;;;16.43;69.15;98924.94;5051366;28;19931;-58
2023/03/24 02:17:33;;;;;;;;;;;;;;;16.64;69.10;98955.59;5050965;28;20417;-58
2023/03/24 02:20:11;;;;;;;;;;;;;;;16.66;68.84;98950.13;5052469;28;19943;-58
2023/03/24 02:22:42;;;;;;;;;;;;;;;16.69;68.85;98944.50;5050163;28;19935;-58
2023/03/24 02:25:22;;;;;;;;;;;;;;;16.68;69.26;98942.81;5049827;28;19919;-58
2023/03/24 02:27:55;;;;;;;;;;;;;;;16.68;69.04;98948.19;5067409;28;20695;-59
2023/03/24 02:30:39;;;;;;;;;;;;;;;16.64;69.67;98941.31;5070288;28;20007;-59
2023/03/24 02:33:04;;;;;;;;;;;;;;;16.65;68.72;98933.16;5065600;28;20027;-59
2023/03/24 02:35:48;;;;;;;;;;;;;;;16.67;67.98;98941.94;5069895;28;20447;-59
2023/03/24 02:38:16;;;;;;;;;;;;;;;16.72;67.90;98939.78;5051466;28;19931;-58
2023/03/24 02:40:53;;;;;;;;;;;;;;;16.75;65.98;98933.34;5068539;28;20316;-59
2023/03/24 02:43:25;;;;;;;;;;;;;;;16.86;64.95;98930.69;5050859;28;19965;-58
2023/03/24 02:46:06;;;;;;;;;;;;;;;16.95;63.95;98930.84;4930611;28;20018;-58
2023/03/24 02:48:53;;;;;;;;;;;;;;;17.08;63.25;98933.47;5046908;28;20272;-59
2023/03/24 02:51:25;;;;;;;;;;;;;;;17.15;63.54;98941.94;5050562;28;19946;-59
2023/03/24 02:53:56;;;;;;;;;;;;;;;17.20;62.82;98934.38;5038363;28;19921;-59
2023/03/24 02:56:28;;;;;;;;;;;;;;;17.20;63.57;98929.84;5052205;28;19928;-59
2023/03/24 02:58:54;;;;;;;;;;;;;;;17.17;62.69;98932.75;5046483;28;19920;-58
2023/03/24 03:01:40;;;;;;;;;;;;;;;17.25;61.89;98927.66;5030413;28;20355;-58
2023/03/24 03:04:11;;;;;;;;;;;;;;;17.35;61.32;98935.88;5030061;28;19949;-58
2023/03/24 03:06:41;;;;;;;;;;;;;;;17.38;61.66;98944.53;5047436;28;20025;-58
2023/03/24 03:09:11;;;;;;;;;;;;;;;17.34;61.74;98940.41;5050225;28;19945;-59
2023/03/24 03:11:42;;;;;;;;;;;;;;;17.36;62.10;98937.59;5044403;28;21604;-59
2023/03/24 03:14:07;;;;;;;;;;;;;;;17.32;62.05;98945.03;5030833;28;19979;-59
2023/03/24 03:16:38;;;;;;;;;;;;;;;17.31;61.94;98943.31;5032863;28;19955;-59
2023/03/24 03:19:08;;;;;;;;;;;;;;;17.30;62.44;98935.38;5050331;28;20070;-59
2023/03/24 03:21:37;;;;;;;;;;;;;;;17.29;62.41;98945.28;5044492;28;19942;-59
2023/03/24 03:24:08;;;;;;;;;;;;;;;17.23;62.41;98953.81;5032892;28;19933;-59
2023/03/24 03:26:33;;;;;;;;;;;;;;;17.22;63.46;98957.47;5054087;28;20046;-59
2023/03/24 03:29:08;;;;;;;;;;;;;;;17.22;63.24;98975.41;5032710;28;20055;-59
2023/03/24 03:31:44;;;;;;;;;;;;;;;17.22;62.85;98960.16;5048054;28;20014;-59
2023/03/24 03:34:18;;;;;;;;;;;;;;;17.24;62.60;98963.56;5029846;28;19961;-59
2023/03/24 03:36:46;;;;;;;;;;;;;;;17.20;63.12;98970.16;5030029;28;19987;-59
2023/03/24 03:39:17;;;;;;;;;;;;;;;17.21;62.12;98963.81;5032635;28;20383;-59
2023/03/24 03:41:43;;;;;;;;;;;;;;;17.23;62.41;98972.63;5029882;28;19917;-59
2023/03/24 03:44:09;;;;;;;;;;;;;;;17.28;61.93;98975.78;5041117;28;20338;-59
2023/03/24 03:46:35;;;;;;;;;;;;;;;17.30;62.14;98983.78;5037028;28;19925;-59
2023/03/24 03:49:00;;;;;;;;;;;;;;;17.27;61.99;98978.59;5049841;28;20374;-59
2023/03/24 03:51:25;;;;;;;;;;;;;;;17.27;61.98;98992.91;5052159;28;19975;-59
2023/03/24 03:54:01;;;;;;;;;;;;;;;17.37;61.61;98985.84;5049523;28;19974;-59
2023/03/24 03:56:28;;;;;;;;;;;;;;;17.40;61.14;98995.50;5060666;28;19934;-58
2023/03/24 03:58:53;;;;;;;;;;;;;;;17.40;60.30;99001.75;5070108;28;19986;-59
2023/03/24 04:01:20;;;;;;;;;;;;;;;17.45;60.45;99007.66;5055773;28;20308;-59
2023/03/24 04:04:04;;;;;;;;;;;;;;;17.51;59.53;99007.19;5049575;28;19960;-59
2023/03/24 04:06:56;;;;;;;;;;;;;;;17.53;59.06;99018.69;5052371;28;19921;-58
2023/03/24 04:09:34;;;;;;;;;;;;;;;17.64;58.87;99015.19;5049366;28;20020;-59
2023/03/24 04:12:02;;;;;;;;;;;;;;;17.64;58.99;99017.88;5049182;28;20346;-59
2023/03/24 04:14:28;;;;;;;;;;;;;;;17.62;59.39;99023.38;5065611;28;19943;-58
2023/03/24 04:17:06;;;;;;;;;;;;;;;17.63;59.53;99035.84;5069487;28;19948;-58
2023/03/24 04:19:41;;;;;;;;;;;;;;;17.60;60.61;99038.75;5065747;28;19999;-59
2023/03/24 04:22:21;;;;;;;;;;;;;;;17.53;64.56;99055.50;5068314;28;19932;-59
2023/03/24 04:24:58;;;;;;;;;;;;;;;17.46;69.35;99070.38;5065304;28;19952;-59
2023/03/24 04:27:30;;;;;;;;;;;;;;;17.29;74.34;99089.56;5068635;28;20041;-60
2023/03/24 04:30:05;;;;;;;;;;;;;;;17.09;78.29;99109.84;5068420;28;19916;-59
2023/03/24 04:32:34;;;;;;;;;;;;;;;16.84;82.36;99117.97;5057249;28;20280;-60
2023/03/24 04:35:03;;;;;;;;;;;;;;;16.67;84.55;99113.78;5048765;28;19920;-60
2023/03/24 04:37:36;;;;;;;;;;;;;;;16.58;86.68;99114.47;5050724;28;19999;-60
2023/03/24 04:40:04;;;;;;;;;;;;;;;16.47;88.31;99105.47;5049426;28;19929;-58
2023/03/24 04:42:35;;;;;;;;;;;;;;;16.28;91.14;99095.13;5049339;28;19993;-59
2023/03/24 04:45:02;;;;;;;;;;;;;;;16.14;93.43;99080.97;5058888;28;20021;-59
2023/03/24 04:47:30;;;;;;;;;;;;;;;16.15;94.02;99088.91;5072391;28;19996;-59
2023/03/24 04:49:59;;;;;;;;;;;;;;;16.07;95.04;99085.03;5069155;28;19927;-59
2023/03/24 04:52:26;;;;;;;;;;;;;;;16.03;95.23;99089.75;5072689;28;20001;-58
2023/03/24 04:54:52;;;;;;;;;;;;;;;16.00;95.17;99089.09;5069331;28;19955;-58
2023/03/24 04:57:17;;;;;;;;;;;;;;;15.97;96.08;99092.00;5072670;28;19966;-58
2023/03/24 04:59:42;;;;;;;;;;;;;;;15.96;96.95;99090.28;5061135;28;19947;-59
2023/03/24 05:02:07;;;;;;;;;;;;;;;15.99;96.18;99098.13;5052641;28;20395;-59
2023/03/24 05:04:35;;;;;;;;;;;;;;;15.99;96.04;99095.44;5054620;28;19947;-59
2023/03/24 05:07:01;;;;;;;;;;;;;;;16.01;96.38;99101.56;5072551;28;20025;-59
2023/03/24 05:09:26;;;;;;;;;;;;;;;16.01;96.54;99104.25;5072027;28;20010;-58
2023/03/24 05:11:51;;;;;;;;;;;;;;;15.94;96.94;99100.25;5072384;28;19983;-58
2023/03/24 05:14:17;;;;;;;;;;;;;;;15.87;97.67;99120.41;5066351;28;20027;-59
2023/03/24 05:16:42;;;;;;;;;;;;;;;15.74;98.95;99110.53;5060307;28;19927;-59
2023/03/24 05:19:08;;;;;;;;;;;;;;;15.79;98.48;99113.75;5071251;28;19923;-58
2023/03/24 05:21:34;;;;;;;;;;;;;;;15.66;98.93;99118.25;5054437;28;19923;-59
2023/03/24 05:23:59;;;;;;;;;;;;;;;15.58;99.74;99120.56;5051330;28;19917;-59
2023/03/24 05:26:27;;;;;;;;;;;;;;;15.46;100.00;99110.66;5067511;28;19931;-58
2023/03/24 05:28:52;;;;;;;;;;;;;;;15.40;100.00;99105.69;5071705;28;20433;-58
2023/03/24 05:31:18;;;;;;;;;;;;;;;15.41;99.73;99101.22;5070821;28;19913;-58
2023/03/24 05:33:43;;;;;;;;;;;;;;;15.40;100.00;99094.13;5059124;28;19978;-58
2023/03/24 05:36:09;;;;;;;;;;;;;;;15.39;100.00;99093.28;5072685;28;19937;-59
2023/03/24 05:38:34;;;;;;;;;;;;;;;15.40;100.00;99100.34;5062111;28;19942;-59
2023/03/24 05:41:00;;;;;;;;;;;;;;;15.34;100.00;99098.03;5054720;28;20011;-59
2023/03/24 05:43:26;;;;;;;;;;;;;;;15.31;100.00;99092.03;5052056;28;19949;-59
2023/03/24 05:45:51;;;;;;;;;;;;;;;15.35;100.00;99091.72;5052081;28;19938;-58
2023/03/24 05:48:17;;;;;;;;;;;;;;;15.35;100.00;99086.34;5053955;28;19960;-59
2023/03/24 05:50:42;;;;;;;;;;;;;;;15.38;100.00;99096.88;5051899;28;19972;-58
2023/03/24 05:53:07;;;;;;;;;;;;;;;15.35;99.64;99090.88;5051321;28;19988;-59
2023/03/24 05:55:33;;;;;;;;;;;;;;;15.41;99.83;99086.00;5052842;28;19923;-59
2023/03/24 05:58:00;;;;;;;;;;;;;;;15.44;100.00;99077.75;5067027;28;19929;-59
2023/03/24 06:00:26;;;;;;;;;;;;;;;15.49;98.90;99075.63;5068903;28;19942;-59
2023/03/24 06:02:52;;;;;;;;;;;;;;;15.53;99.10;99074.44;5068771;28;19945;-59
2023/03/24 06:05:19;;;;;;;;;;;;;;;15.52;97.83;99082.56;5070465;28;19997;-59
2023/03/24 06:07:44;;;;;;;;;;;;;;;15.53;96.26;99090.50;5059262;28;19938;-59
2023/03/24 06:10:10;;;;;;;;;;;;;;;15.58;95.50;99098.25;5051245;28;19939;-59
2023/03/24 06:12:35;;;;;;;;;;;;;;;15.65;95.56;99100.41;5051658;28;19948;-59
2023/03/24 06:15:01;;;;;;;;;;;;;;;15.64;96.16;99109.44;5051281;28;19950;-59
2023/03/24 06:17:29;;;;;;;;;;;;;;;15.67;96.19;99106.53;5054499;28;19969;-59
2023/03/24 06:20:02;;;;;;;;;;;;;;;15.73;96.00;99124.88;5051267;28;20041;-59
2023/03/24 06:22:29;;;;;;;;;;;;;;;15.70;96.80;99143.88;5051096;28;20421;-60
2023/03/24 06:24:55;;;;;;;;;;;;;;;15.61;97.87;99146.31;5051452;28;20538;-60
2023/03/24 06:27:24;;;;;;;;;;;;;;;15.62;98.72;99148.88;5069421;28;19970;-60
2023/03/24 06:29:50;;;;;;;;;;;;;;;15.58;99.77;99147.34;5050709;28;19965;-60
2023/03/24 06:32:17;;;;;;;;;;;;;;;15.41;100.00;99134.22;5065339;28;19935;-60
2023/03/24 06:34:42;;;;;;;;;;;;;;;15.42;100.00;99135.94;5070688;28;20518;-60
2023/03/24 06:37:07;;;;;;;;;;;;;;;15.35;100.00;99147.16;5064492;28;20062;-60
2023/03/24 06:39:33;;;;;;;;;;;;;;;15.36;100.00;99147.03;5057741;28;20294;-61
2023/03/24 06:41:58;;;;;;;;;;;;;;;15.40;100.00;99159.28;5070418;28;20066;-60
2023/03/24 06:44:23;;;;;;;;;;;;;;;15.36;100.00;99160.44;5051995;28;19966;-60
2023/03/24 06:46:49;;;;;;;;;;;;;;;15.32;100.00;99160.75;5063243;28;19960;-61
2023/03/24 06:49:14;;;;;;;;;;;;;;;15.33;100.00;99168.69;5069656;28;20368;-61
2023/03/24 06:51:39;;;;;;;;;;;;;;;15.33;100.00;99163.31;5069650;28;19965;-61
2023/03/24 06:54:04;;;;;;;;;;;;;;;15.33;100.00;99166.00;5070459;28;19955;-61
2023/03/24 06:56:30;;;;;;;;;;;;;;;15.27;100.00;99169.06;5066923;28;19942;-60
2023/03/24 06:58:55;;;;;;;;;;;;;;;15.24;100.00;99189.81;5069497;28;19930;-60
2023/03/24 07:01:21;;;;;;;;;;;;;;;15.24;100.00;99200.53;5070305;28;19985;-60
2023/03/24 07:03:47;;;;;;;;;;;;;;;15.23;100.00;99204.19;5069656;28;19959;-60
2023/03/24 07:06:12;;;;;;;;;;;;;;;15.24;100.00;99185.34;5064919;28;19933;-60
2023/03/24 07:08:37;;;;;;;;;;;;;;;15.19;100.00;99178.56;5070192;28;19924;-61
2023/03/24 07:11:03;;;;;;;;;;;;;;;15.14;100.00;99189.56;5056638;28;19960;-61
2023/03/24 07:13:28;;;;;;;;;;;;;;;15.14;100.00;99189.56;5050673;28;20050;-61
2023/03/24 07:15:54;;;;;;;;;;;;;;;15.11;100.00;99200.47;5051936;28;19950;-61
2023/03/24 07:18:20;;;;;;;;;;;;;;;15.16;100.00;99208.22;5050184;28;19925;-61
2023/03/24 07:20:45;;;;;;;;;;;;;;;15.16;100.00;99229.66;5050051;28;19940;-60
2023/03/24 07:23:11;;;;;;;;;;;;;;;15.17;100.00;99221.50;5061232;28;19933;-61
2023/03/24 07:25:38;;;;;;;;;;;;;;;15.16;100.00;99214.44;5070201;28;20356;-61
2023/03/24 07:28:03;;;;;;;;;;;;;;;15.06;100.00;99202.59;5070262;28;19916;-61
2023/03/24 07:30:29;;;;;;;;;;;;;;;15.02;100.00;99195.72;5069559;28;20215;-60
2023/03/24 07:32:55;;;;;;;;;;;;;;;14.98;100.00;99207.56;5052876;28;20068;-60
2023/03/24 07:35:21;;;;;;;;;;;;;;;14.84;100.00;99188.84;5049860;28;20689;-60
2023/03/24 07:37:46;;;;;;;;;;;;;;;14.81;100.00;99189.03;5060374;28;19920;-60
2023/03/24 07:40:12;;;;;;;;;;;;;;;14.83;100.00;99189.78;5069642;28;19924;-59
2023/03/24 07:42:41;;;;;;;;;;;;;;;14.89;100.00;99172.50;5066613;28;19942;-60
2023/03/24 07:45:08;;;;;;;;;;;;;;;15.00;100.00;99164.63;5069487;28;19912;-59
2023/03/24 07:47:33;;;;;;;;;;;;;;;14.96;100.00;99153.25;5050149;28;19966;-60
2023/03/24 07:49:58;;;;;;;;;;;;;;;14.90;100.00;99163.50;5052056;28;19933;-59
2023/03/24 07:52:24;;;;;;;;;;;;;;;14.93;100.00;99164.16;5052297;28;20436;-59
2023/03/24 07:54:49;;;;;;;;;;;;;;;15.02;100.00;99160.91;5049686;28;20245;-59
2023/03/24 07:57:14;;;;;;;;;;;;;;;14.97;100.00;99149.63;5060206;28;19987;-60
2023/03/24 07:59:40;;;;;;;;;;;;;;;15.01;100.00;99151.13;5049676;28;19929;-60
2023/03/24 08:02:15;;;;;;;;;;;;;;;15.17;100.00;99159.06;5049597;28;20675;-59
2023/03/24 08:04:41;;;;;;;;;;;;;;;15.29;100.00;99163.59;5056649;28;19916;-60
2023/03/24 08:07:07;;;;;;;;;;;;;;;15.39;100.00;99165.63;5069694;28;19980;-60
2023/03/24 08:09:33;;;;;;;;;;;;;;;15.46;100.00;99164.28;5059777;28;20282;-59
2023/03/24 08:11:58;;;;;;;;;;;;;;;15.50;100.00;99154.22;5049578;28;19933;-60
2023/03/24 08:14:23;;;;;;;;;;;;;;;15.47;100.00;99165.09;5049455;28;20459;-60
2023/03/24 08:16:48;;;;;;;;;;;;;;;15.47;100.00;99168.66;5049624;28;19946;-60
2023/03/24 08:19:14;;;;;;;;;;;;;;;15.42;100.00;99172.63;5052420;28;19936;-59
2023/03/24 08:21:39;;;;;;;;;;;;;;;15.38;100.00;99176.41;5059967;28;19928;-59
2023/03/24 08:24:05;;;;;;;;;;;;;;;15.40;100.00;99178.06;5067797;28;19939;-59
2023/03/24 08:26:33;;;;;;;;;;;;;;;15.40;100.00;99185.25;5064921;28;19916;-59
2023/03/24 08:28:59;;;;;;;;;;;;;;;15.39;100.00;99181.69;5073708;28;19939;-59
2023/03/24 08:31:30;;;;;;;;;;;;;;;15.38;100.00;99182.66;5056762;28;19939;-60
2023/03/24 08:33:55;;;;;;;;;;;;;;;15.40;100.00;99180.72;5053577;28;19954;-59
2023/03/24 08:36:24;;;;;;;;;;;;;;;15.37;100.00;99180.91;5053447;28;19970;-59
2023/03/24 08:38:50;;;;;;;;;;;;;;;15.52;100.00;99179.94;5055294;28;20022;-59
2023/03/24 08:41:15;;;;;;;;;;;;;;;15.48;100.00;99178.44;5053258;28;19967;-59
2023/03/24 08:43:41;;;;;;;;;;;;;;;15.56;100.00;99170.75;5054274;28;19970;-59
2023/03/24 08:46:07;;;;;;;;;;;;;;;15.49;100.00;99168.56;5070045;28;19927;-59
2023/03/24 08:48:33;;;;;;;;;;;;;;;15.53;100.00;99165.56;5056646;28;19964;-59
2023/03/24 08:50:59;;;;;;;;;;;;;;;15.61;100.00;99170.44;5053510;28;19938;-59
2023/03/24 08:53:24;;;;;;;;;;;;;;;15.60;100.00;99188.31;5061777;28;20014;-59
2023/03/24 08:55:50;;;;;;;;;;;;;;;15.63;100.00;99182.75;5073086;28;20361;-59
2023/03/24 08:58:16;;;;;;;;;;;;;;;15.70;100.00;99185.91;5069322;28;19936;-59
2023/03/24 09:00:43;;;;;;;;;;;;;;;15.69;100.00;99182.38;5069259;28;19942;-59
2023/03/24 09:03:11;;;;;;;;;;;;;;;15.70;100.00;99178.72;5072963;28;19927;-59
2023/03/24 09:05:36;;;;;;;;;;;;;;;15.75;100.00;99198.03;5072775;28;19956;-59
2023/03/24 09:08:02;;;;;;;;;;;;;;;15.74;100.00;99185.59;5072551;28;19938;-59
2023/03/24 09:10:27;;;;;;;;;;;;;;;15.78;100.00;99180.91;5062251;28;20036;-60
2023/03/24 09:12:52;;;;;;;;;;;;;;;15.68;100.00;99156.50;5052548;28;20315;-60
2023/03/24 09:15:18;;;;;;;;;;;;;;;15.91;100.00;99186.28;5052598;28;19967;-60
2023/03/24 09:17:43;;;;;;;;;;;;;;;16.00;100.00;99196.38;5058093;28;20647;-60
2023/03/24 09:20:10;;;;;;;;;;;;;;;15.98;100.00;99176.88;5058974;28;20302;-61
2023/03/24 09:22:45;;;;;;;;;;;;;;;15.97;100.00;99167.09;5034472;28;20266;-60
2023/03/24 09:25:16;;;;;;;;;;;;;;;16.02;100.00;99164.97;5058562;28;19959;-60
2023/03/24 09:27:41;;;;;;;;;;;;;;;16.11;100.00;99167.88;5072533;28;19997;-60
2023/03/24 09:30:08;;;;;;;;;;;;;;;16.11;100.00;99169.72;5072242;28;19920;-60
2023/03/24 09:32:33;;;;;;;;;;;;;;;16.16;100.00;99175.63;5071935;28;19970;-60
2023/03/24 09:34:59;;;;;;;;;;;;;;;16.07;99.42;99185.16;5062720;28;20611;-60
2023/03/24 09:37:27;;;;;;;;;;;;;;;16.16;99.43;99187.19;5071392;28;19935;-60
2023/03/24 09:39:53;;;;;;;;;;;;;;;16.11;99.17;99199.22;5068239;28;20391;-60
2023/03/24 09:42:22;;;;;;;;;;;;;;;16.16;98.46;99191.72;5071214;28;19919;-60
2023/03/24 09:44:50;;;;;;;;;;;;;;;16.21;98.99;99182.38;5071658;28;19942;-60
2023/03/24 09:47:24;;;;;;;;;;;;;;;16.16;97.43;99176.47;5055675;28;20050;-60
2023/03/24 09:49:51;;;;;;;;;;;;;;;16.23;97.68;99182.28;5051806;28;19979;-60
2023/03/24 09:52:20;;;;;;;;;;;;;;;16.25;97.82;99172.28;5052580;28;19929;-60
2023/03/24 09:54:57;;;;;;;;;;;;;;;16.20;96.16;99199.44;5053215;28;19935;-60
2023/03/24 09:57:26;;;;;;;;;;;;;;;16.23;96.33;99193.88;5070623;28;19928;-60
2023/03/24 09:59:51;;;;;;;;;;;;;;;16.28;96.29;99206.97;5072153;28;19934;-60
2023/03/24 10:02:18;;;;;;;;;;;;;;;16.38;96.16;99208.06;5072219;28;19926;-60
2023/03/24 10:04:43;;;;;;;;;;;;;;;16.37;94.79;99199.16;5068858;28;19947;-60
2023/03/24 10:07:31;;;;;;;;;;;;;;;16.42;94.99;99214.94;5071970;28;19926;-60
2023/03/24 10:10:00;;;;;;;;;;;;;;;16.53;94.11;99209.72;5067315;28;20120;-60
2023/03/24 10:12:28;;;;;;;;;;;;;;;16.58;94.18;99210.25;5052142;28;19917;-60
2023/03/24 10:15:02;;;;;;;;;;;;;;;16.58;93.78;99221.88;5056731;28;19924;-60
2023/03/24 10:17:44;;;;;;;;;;;;;;;16.57;93.30;99220.13;5054259;28;20408;-60
2023/03/24 10:20:30;;;;;;;;;;;;;;;16.61;92.66;99215.41;5033204;28;19932;-60
2023/03/24 10:23:04;;;;;;;;;;;;;;;16.58;92.74;99231.75;5042929;28;19942;-60
2023/03/24 10:25:45;;;;;;;;;;;;;;;16.58;91.82;99224.56;5054678;28;19931;-60
2023/03/24 10:28:21;;;;;;;;;;;;;;;16.63;92.06;99229.59;5071521;28;19918;-60
2023/03/24 10:30:48;;;;;;;;;;;;;;;16.61;92.48;99231.53;5069799;28;19942;-60
2023/03/24 10:33:14;;;;;;;;;;;;;;;16.47;93.14;99242.38;5052242;28;19956;-59
2023/03/24 10:35:50;;;;;;;;;;;;;;;16.48;92.87;99257.50;5051605;28;19913;-60
2023/03/24 10:38:17;;;;;;;;;;;;;;;16.53;93.35;99258.91;5053904;28;19925;-60
2023/03/24 10:40:42;;;;;;;;;;;;;;;16.60;93.46;99267.41;5051051;28;19932;-60
2023/03/24 10:43:08;;;;;;;;;;;;;;;16.52;92.37;99259.03;5053092;28;20585;-60
2023/03/24 10:45:34;;;;;;;;;;;;;;;16.58;93.09;99269.34;5050836;28;19940;-60
2023/03/24 10:48:01;;;;;;;;;;;;;;;16.57;94.17;99278.38;5068053;28;19998;-60
2023/03/24 10:50:28;;;;;;;;;;;;;;;16.55;95.26;99282.97;5054062;28;19949;-60
2023/03/24 10:52:54;;;;;;;;;;;;;;;16.48;97.42;99276.28;5069817;28;19947;-60
2023/03/24 10:55:22;;;;;;;;;;;;;;;16.36;98.25;99283.31;5070220;28;19919;-60
2023/03/24 10:57:55;;;;;;;;;;;;;;;16.30;100.00;99282.88;5068318;28;20542;-60
2023/03/24 11:00:25;;;;;;;;;;;;;;;16.27;99.58;99291.13;5050476;28;19970;-61
2023/03/24 11:02:53;;;;;;;;;;;;;;;16.19;100.00;99278.25;5050431;28;19933;-61
2023/03/24 11:05:19;;;;;;;;;;;;;;;16.23;100.00;99270.81;5063533;28;19950;-61
2023/03/24 11:07:48;;;;;;;;;;;;;;;16.26;100.00;99273.31;5070173;28;19944;-60
2023/03/24 11:10:17;;;;;;;;;;;;;;;16.24;100.00;99269.88;5063461;28;19935;-60
2023/03/24 11:12:52;;;;;;;;;;;;;;;16.42;100.00;99279.38;5064514;28;19973;-61
2023/03/24 11:15:21;;;;;;;;;;;;;;;16.50;100.00;99275.25;5070445;28;19929;-60
2023/03/24 11:17:51;;;;;;;;;;;;;;;16.59;100.00;99271.06;5070110;28;19964;-60
2023/03/24 11:20:22;;;;;;;;;;;;;;;16.62;99.51;99270.84;5065394;28;20392;-60
2023/03/24 11:22:58;;;;;;;;;;;;;;;16.64;98.95;99274.25;5069096;28;19947;-60
2023/03/24 11:25:28;;;;;;;;;;;;;;;16.57;97.29;99267.63;5054854;28;20032;-60
2023/03/24 11:28:01;;;;;;;;;;;;;;;16.55;98.09;99269.53;5050293;28;20515;-59
2023/03/24 11:30:30;;;;;;;;;;;;;;;16.58;97.65;99263.97;5065538;28;19945;-60
2023/03/24 11:32:56;;;;;;;;;;;;;;;16.60;97.49;99252.16;5068542;28;20629;-60
2023/03/24 11:35:21;;;;;;;;;;;;;;;16.50;96.43;99252.88;5069979;28;19916;-59
2023/03/24 11:37:47;;;;;;;;;;;;;;;16.45;94.88;99266.63;5065528;28;19962;-60
2023/03/24 11:40:14;;;;;;;;;;;;;;;16.51;94.83;99255.47;5067608;28;20359;-59
2023/03/24 11:42:59;;;;;;;;;;;;;;;16.54;95.21;99255.25;5049851;28;20422;-59
2023/03/24 11:45:34;;;;;;;;;;;;;;;16.57;93.79;99262.25;5052324;28;19937;-60
2023/03/24 11:48:00;;;;;;;;;;;;;;;16.54;93.47;99257.09;5049621;28;19982;-60
2023/03/24 11:50:27;;;;;;;;;;;;;;;16.50;92.78;99255.56;5049979;28;20288;-59
2023/03/24 11:52:56;;;;;;;;;;;;;;;16.51;93.02;99268.03;5049982;28;20284;-59
2023/03/24 11:55:28;;;;;;;;;;;;;;;16.58;93.92;99274.69;5055941;28;19942;-59
2023/03/24 11:58:05;;;;;;;;;;;;;;;16.56;93.93;99273.94;5073806;28;19940;-59
2023/03/24 12:00:32;;;;;;;;;;;;;;;16.47;93.67;99274.59;5073886;28;20435;-59
2023/03/24 12:03:15;;;;;;;;;;;;;;;16.43;94.13;99281.06;5071529;28;20911;-59
2023/03/24 12:05:46;;;;;;;;;;;;;;;16.17;95.62;99284.66;5066377;28;19946;-59
2023/03/24 12:08:32;;;;;;;;;;;;;;;16.22;97.40;99293.25;5072634;28;20421;-59
2023/03/24 12:10:58;;;;;;;;;;;;;;;16.13;98.98;99294.72;5072838;28;19963;-59
2023/03/24 12:13:31;;;;;;;;;;;;;;;16.15;98.32;99298.19;5062375;28;20434;-58
2023/03/24 12:16:03;;;;;;;;;;;;;;;16.05;98.79;99329.25;5052995;28;19920;-60
2023/03/24 12:18:47;;;;;;;;;;;;;;;16.09;100.00;99332.59;5052594;28;19927;-59
2023/03/24 12:21:30;;;;;;;;;;;;;;;15.89;97.48;99339.28;5053856;28;19921;-59
2023/03/24 12:24:16;;;;;;;;;;;;;;;15.63;94.93;99354.34;5054047;28;20027;-60
2023/03/24 12:26:42;;;;;;;;;;;;;;;15.58;94.84;99340.38;5066220;28;19920;-58
2023/03/24 12:29:10;;;;;;;;;;;;;;;15.46;94.23;99340.28;5059846;28;19935;-58
2023/03/24 12:31:47;;;;;;;;;;;;;;;15.29;94.66;99335.09;5070805;28;20408;-59
2023/03/24 12:34:35;;;;;;;;;;;;;;;15.11;96.42;99334.41;5058630;28;19952;-58
2023/03/24 12:37:09;;;;;;;;;;;;;;;14.94;96.53;99331.06;5057275;28;19931;-59
2023/03/24 12:39:41;;;;;;;;;;;;;;;14.92;99.02;99327.59;5054145;28;19932;-58
2023/03/24 12:42:11;;;;;;;;;;;;;;;14.81;100.00;99340.78;5056054;28;19975;-59
2023/03/24 12:44:49;;;;;;;;;;;;;;;14.52;100.00;99334.50;5068835;28;19970;-60
2023/03/24 12:47:32;;;;;;;;;;;;;;;14.50;100.00;99347.09;5081901;28;19969;-60
2023/03/24 12:50:15;;;;;;;;;;;;;;;14.60;100.00;99340.25;5064023;28;20330;-60
2023/03/24 12:52:43;;;;;;;;;;;;;;;14.55;100.00;99333.47;5058074;28;20424;-60